createdAt,value
2023-03-15T00:04:37.334Z,4.00
2023-03-15T00:09:54.376Z,4.47
2023-03-15T00:15:14.514Z,4.85
2023-03-15T00:20:31.148Z,3.72
2023-03-15T00:25:48.653Z,3.80
2023-03-15T00:31:17.267Z,3.75
2023-03-15T00:36:33.305Z,4.20
2023-03-15T00:41:49.267Z,3.55
2023-03-15T00:47:05.278Z,3.55
2023-03-15T00:52:22.366Z,4.10
2023-03-15T00:57:38.033Z,3.17
2023-03-15T01:02:55.219Z,3.83
2023-03-15T01:08:10.904Z,2.95
2023-03-15T01:13:26.923Z,3.15
2023-03-15T01:18:43.630Z,3.25
2023-03-15T01:23:59.546Z,3.08
2023-03-15T01:29:18.027Z,3.63
2023-03-15T01:34:34.203Z,3.10
2023-03-15T01:39:49.847Z,3.00
2023-03-15T01:45:44.380Z,3.50
2023-03-15T01:51:04.759Z,2.90
2023-03-15T01:56:22.774Z,2.97
2023-03-15T02:01:45.936Z,3.13
2023-03-15T02:07:03.851Z,3.92
2023-03-15T02:12:20.267Z,3.40
2023-03-15T02:17:45.305Z,3.55
2023-03-15T02:23:02.861Z,3.60
2023-03-15T02:28:20.280Z,4.75
2023-03-15T02:33:44.671Z,4.75
2023-03-15T02:39:01.567Z,4.97
2023-03-15T02:44:43.242Z,4.63
2023-03-15T02:49:58.944Z,5.47
2023-03-15T02:55:14.429Z,5.05
2023-03-15T03:00:31.013Z,4.97
2023-03-15T03:05:47.046Z,5.80
2023-03-15T03:11:03.313Z,3.80
2023-03-15T03:16:19.084Z,4.47
2023-03-15T03:21:34.913Z,3.97
2023-03-15T03:26:50.824Z,4.20
2023-03-15T03:32:06.953Z,4.13
2023-03-15T03:37:22.895Z,4.15
2023-03-15T03:42:38.341Z,4.70
2023-03-15T03:47:54.156Z,4.40
2023-03-15T03:53:09.625Z,4.80
2023-03-15T03:58:25.766Z,4.45
2023-03-15T04:03:41.700Z,4.53
2023-03-15T04:08:58.151Z,4.47
2023-03-15T04:14:15.220Z,4.15
2023-03-15T04:19:31.490Z,4.32
2023-03-15T04:24:50.827Z,4.20
2023-03-15T04:30:07.133Z,4.30
2023-03-15T04:35:22.993Z,3.95
2023-03-15T04:40:38.762Z,4.50
2023-03-15T04:45:54.801Z,4.00
2023-03-15T04:51:10.630Z,4.10
2023-03-15T04:56:26.328Z,4.72
2023-03-15T05:01:42.006Z,3.95
2023-03-15T05:06:57.876Z,4.50
2023-03-15T05:12:14.172Z,3.78
2023-03-15T05:17:29.921Z,3.92
2023-03-15T05:22:45.294Z,4.22
2023-03-15T05:28:04.766Z,4.25
2023-03-15T05:33:22.069Z,4.10
2023-03-15T05:38:37.734Z,4.75
2023-03-15T05:43:53.692Z,4.70
2023-03-15T05:49:09.947Z,3.78
2023-03-15T05:54:25.676Z,4.05
2023-03-15T05:59:42.321Z,4.15
2023-03-15T06:04:58.413Z,4.10
2023-03-15T06:10:14.353Z,4.18
2023-03-15T06:15:30.094Z,4.65
2023-03-15T06:20:46.236Z,3.72
2023-03-15T06:26:01.849Z,4.05
2023-03-15T06:31:17.950Z,11.32
2023-03-15T06:36:33.942Z,3.88
2023-03-15T06:41:49.937Z,2.40
2023-03-15T06:47:05.837Z,2.15
2023-03-15T06:52:21.857Z,1.65
2023-03-15T06:57:37.788Z,1.60
2023-03-15T07:02:53.710Z,1.48
2023-03-15T07:08:09.432Z,2.63
2023-03-15T07:13:25.227Z,2.15
2023-03-15T07:18:41.172Z,1.75
2023-03-15T07:23:56.923Z,1.55
2023-03-15T07:29:12.525Z,1.73
2023-03-15T07:34:28.138Z,2.15
2023-03-15T07:39:44.020Z,1.92
2023-03-15T07:45:00.036Z,1.90
2023-03-15T07:50:17.860Z,1.90
2023-03-15T07:55:37.281Z,15.35
2023-03-15T08:00:56.623Z,6.50
2023-03-15T08:06:12.472Z,2.60
2023-03-15T08:11:28.343Z,1.40
2023-03-15T08:16:44.454Z,1.17
2023-03-15T08:22:00.307Z,1.20
2023-03-15T08:27:16.754Z,1.48
2023-03-15T08:32:32.563Z,1.50
2023-03-15T08:37:48.237Z,1.00
2023-03-15T08:43:04.100Z,1.30
2023-03-15T08:48:19.906Z,1.50
2023-03-15T08:53:35.862Z,1.20
2023-03-15T08:58:51.840Z,0.35
2023-03-15T09:04:07.817Z,0.40
2023-03-15T09:09:23.976Z,0.30
2023-03-15T09:14:39.530Z,0.40
2023-03-15T09:19:54.785Z,0.38
2023-03-15T09:25:11.105Z,0.32
2023-03-15T09:30:26.963Z,0.40
2023-03-15T09:35:42.743Z,0.30
2023-03-15T09:41:03.913Z,0.38
2023-03-15T09:52:19.451Z,0.38
2023-03-15T09:57:43.626Z,0.45
2023-03-15T10:03:03.937Z,0.47
2023-03-15T10:08:20.062Z,0.40
2023-03-15T10:13:39.073Z,0.30
2023-03-15T10:19:20.975Z,0.25
2023-03-15T10:24:43.449Z,0.65
2023-03-15T10:29:59.949Z,0.22
2023-03-15T10:35:18.161Z,0.40
2023-03-15T10:40:46.014Z,0.45
2023-03-15T10:46:01.606Z,0.40
2023-03-15T10:51:26.020Z,0.30
2023-03-15T10:56:49.635Z,0.30
2023-03-15T11:02:26.070Z,0.30
2023-03-15T11:07:58.939Z,0.28
2023-03-15T11:13:23.576Z,0.40
2023-03-15T11:19:01.800Z,0.30
2023-03-15T11:24:28.426Z,0.30
2023-03-15T11:29:49.173Z,0.30
2023-03-15T11:35:08.151Z,0.50
2023-03-15T11:40:38.371Z,0.30
2023-03-15T11:46:04.858Z,0.55
2023-03-15T11:51:20.859Z,0.30
2023-03-15T11:56:51.474Z,0.20
2023-03-15T12:02:10.203Z,0.30
2023-03-15T12:07:38.572Z,0.20
2023-03-15T12:13:00.243Z,0.43
2023-03-15T12:18:20.221Z,0.30
2023-03-15T12:23:47.057Z,0.85
2023-03-15T12:29:09.066Z,0.50
2023-03-15T12:34:47.573Z,0.40
2023-03-15T12:40:19.140Z,0.50
2023-03-15T12:45:40.678Z,1.15
2023-03-15T12:51:01.884Z,0.60
2023-03-15T12:56:39.088Z,1.13
2023-03-15T13:01:57.298Z,0.50
2023-03-15T13:07:48.929Z,0.40
2023-03-15T13:13:21.464Z,0.63
2023-03-15T13:18:55.430Z,0.47
2023-03-15T13:24:19.884Z,0.40
2023-03-15T13:29:35.954Z,0.55
2023-03-15T13:34:51.862Z,0.50
2023-03-15T13:40:13.802Z,0.30
2023-03-15T13:45:29.552Z,0.70
2023-03-15T13:50:50.154Z,0.40
2023-03-15T13:56:10.018Z,0.67
2023-03-15T14:01:27.129Z,0.40
2023-03-15T14:06:46.014Z,0.40
2023-03-15T14:12:04.885Z,0.50
2023-03-15T14:17:29.709Z,0.70
2023-03-15T14:22:45.587Z,0.60
2023-03-15T14:28:02.838Z,0.55
2023-03-15T14:33:33.546Z,0.75
2023-03-15T14:38:55.192Z,0.30
2023-03-15T14:44:10.939Z,1.25
2023-03-15T14:49:28.712Z,0.40
2023-03-15T14:54:50.003Z,0.50
2023-03-15T15:00:09.533Z,1.10
2023-03-15T15:05:27.571Z,0.52
2023-03-15T15:10:45.474Z,0.55
2023-03-15T15:16:02.093Z,0.47
2023-03-15T15:21:26.205Z,0.52
2023-03-15T15:26:43.635Z,0.80
2023-03-15T15:31:59.334Z,0.43
2023-03-15T15:37:15.786Z,0.70
2023-03-15T15:42:31.390Z,0.80
2023-03-15T15:47:47.802Z,0.60
2023-03-15T15:53:06.444Z,1.02
2023-03-15T15:58:22.969Z,0.70
2023-03-15T16:03:38.492Z,0.77
2023-03-15T16:08:55.455Z,0.68
2023-03-15T16:14:16.237Z,0.63
2023-03-15T16:19:31.725Z,0.70
2023-03-15T16:24:51.112Z,0.68
2023-03-15T16:30:07.757Z,0.60
2023-03-15T16:35:30.462Z,0.57
2023-03-15T16:40:46.643Z,0.57
2023-03-15T16:46:02.388Z,0.60
2023-03-15T16:51:18.386Z,0.93
2023-03-15T16:56:36.620Z,1.13
2023-03-15T17:01:52.450Z,0.70
2023-03-15T17:07:11.210Z,0.90
2023-03-15T17:12:29.363Z,0.70
2023-03-15T17:17:45.240Z,0.85
2023-03-15T17:23:04.733Z,0.70
2023-03-15T17:28:20.873Z,0.75
2023-03-15T17:33:36.826Z,0.80
2023-03-15T17:38:53.968Z,1.15
2023-03-15T17:44:11.220Z,1.00
2023-03-15T17:49:26.622Z,0.85
2023-03-15T17:54:42.519Z,1.33
2023-03-15T17:59:58.474Z,2.10
2023-03-15T18:05:23.315Z,1.75
2023-03-15T18:10:44.390Z,1.75
2023-03-15T18:16:00.298Z,6.82
2023-03-15T18:21:22.058Z,1.73
2023-03-15T18:26:37.727Z,1.67
2023-03-15T18:31:53.238Z,1.58
2023-03-15T18:37:09.933Z,1.67
2023-03-15T18:42:25.636Z,1.55
2023-03-15T18:47:41.569Z,1.45
2023-03-15T18:52:58.224Z,2.13
2023-03-15T18:58:13.691Z,2.10
2023-03-15T19:03:29.657Z,2.35
2023-03-15T19:08:46.017Z,1.92
2023-03-15T19:14:01.937Z,3.10
2023-03-15T19:19:17.680Z,3.90
2023-03-15T19:24:33.308Z,4.63
2023-03-15T19:29:48.934Z,3.45
2023-03-15T19:35:05.141Z,3.13
2023-03-15T19:40:21.141Z,4.60
2023-03-15T19:45:36.540Z,3.25
2023-03-15T19:50:52.015Z,3.08
2023-03-15T19:56:09.850Z,3.45
2023-03-15T20:01:25.716Z,3.83
2023-03-15T20:06:41.567Z,4.20
2023-03-15T20:11:57.692Z,3.55
2023-03-15T20:17:13.358Z,4.95
2023-03-15T20:22:29.271Z,3.22
2023-03-15T20:27:45.506Z,3.30
2023-03-15T20:33:01.693Z,4.32
2023-03-15T20:38:17.481Z,3.92
2023-03-15T20:43:34.182Z,4.70
2023-03-15T20:48:50.084Z,4.80
2023-03-15T20:54:06.094Z,4.07
2023-03-15T20:59:22.802Z,5.63
2023-03-15T21:04:38.498Z,5.50
2023-03-15T21:09:54.483Z,4.50
2023-03-15T21:15:17.823Z,3.60
2023-03-15T21:20:33.785Z,3.38
2023-03-15T21:25:55.799Z,5.63
2023-03-15T21:31:12.247Z,5.40
2023-03-15T21:36:28.149Z,7.13
2023-03-15T21:41:44.479Z,4.20
2023-03-15T21:47:02.178Z,4.40
2023-03-15T21:52:18.100Z,4.10
2023-03-15T21:57:34.202Z,4.60
2023-03-15T22:02:55.632Z,4.13
2023-03-15T22:08:11.856Z,4.70
2023-03-15T22:13:27.824Z,3.72
2023-03-15T22:18:43.925Z,4.22
2023-03-15T22:24:00.113Z,3.97
2023-03-15T22:29:15.977Z,4.38
2023-03-15T22:34:34.473Z,3.60
2023-03-15T22:39:50.412Z,3.58
2023-03-15T22:45:07.359Z,3.58
2023-03-15T22:50:23.220Z,3.95
2023-03-15T22:55:39.109Z,3.53
2023-03-15T23:00:55.600Z,3.85
2023-03-15T23:06:11.308Z,4.75
2023-03-15T23:11:27.276Z,4.25
2023-03-15T23:16:43.108Z,3.70
2023-03-15T23:21:58.953Z,4.15
2023-03-15T23:27:14.424Z,3.90
2023-03-15T23:32:31.428Z,4.05
2023-03-15T23:37:48.102Z,3.83
2023-03-15T23:43:06.012Z,4.32
2023-03-15T23:48:22.319Z,4.07
2023-03-15T23:53:37.584Z,4.10
2023-03-15T23:58:54.496Z,3.85
